createdAt,value
2022-12-19T00:01:35.258Z,33.22
2022-12-19T00:04:12.548Z,33.35
2022-12-19T00:06:47.460Z,30.37
2022-12-19T00:09:22.293Z,33.58
2022-12-19T00:11:57.107Z,33.37
2022-12-19T00:14:31.942Z,32.73
2022-12-19T00:17:07.033Z,39.73
2022-12-19T00:19:42.193Z,35.60
2022-12-19T00:22:18.504Z,33.93
2022-12-19T00:24:53.436Z,39.13
2022-12-19T00:27:28.256Z,38.13
2022-12-19T00:30:03.624Z,38.90
2022-12-19T00:32:38.638Z,33.10
2022-12-19T00:35:14.168Z,35.17
2022-12-19T00:37:49.933Z,39.00
2022-12-19T00:40:24.866Z,32.30
2022-12-19T00:43:00.166Z,34.37
2022-12-19T00:45:38.532Z,36.27
2022-12-19T00:48:16.483Z,37.38
2022-12-19T00:51:04.177Z,37.70
2022-12-19T00:53:43.344Z,36.80
2022-12-19T00:56:28.702Z,34.33
2022-12-19T00:59:03.622Z,37.00
2022-12-19T01:01:41.632Z,40.33
2022-12-19T01:04:35.685Z,35.70
2022-12-19T01:07:12.044Z,42.38
2022-12-19T01:09:46.914Z,40.00
2022-12-19T01:12:41.852Z,43.33
2022-12-19T01:15:20.496Z,39.60
2022-12-19T01:17:55.470Z,38.78
2022-12-19T01:20:30.291Z,40.93
2022-12-19T01:23:05.448Z,40.10
2022-12-19T01:25:41.589Z,43.37
2022-12-19T01:28:21.064Z,41.67
2022-12-19T01:30:57.282Z,32.77
2022-12-19T01:33:32.143Z,38.10
2022-12-19T01:36:07.815Z,43.15
2022-12-19T01:38:42.656Z,41.63
2022-12-19T01:41:17.520Z,39.53
2022-12-19T01:44:07.907Z,40.53
2022-12-19T01:46:50.505Z,40.13
2022-12-19T01:49:31.764Z,42.13
2022-12-19T01:52:10.324Z,41.37
2022-12-19T01:54:49.424Z,40.67
2022-12-19T01:57:25.268Z,38.60
2022-12-19T02:00:03.900Z,35.37
2022-12-19T02:03:08.999Z,37.53
2022-12-19T02:05:50.290Z,37.60
2022-12-19T02:08:26.548Z,42.77
2022-12-19T02:11:01.453Z,45.23
2022-12-19T02:13:37.497Z,39.83
2022-12-19T02:16:34.843Z,39.43
2022-12-19T02:19:30.192Z,44.00
2022-12-19T02:22:45.500Z,40.07
2022-12-19T02:26:11.231Z,36.97
2022-12-19T02:29:30.033Z,42.53
2022-12-19T02:32:20.010Z,42.80
2022-12-19T02:35:13.517Z,43.20
2022-12-19T02:38:05.399Z,40.20
2022-12-19T02:41:15.292Z,43.23
2022-12-19T02:43:58.820Z,44.73
2022-12-19T02:46:36.184Z,44.37
2022-12-19T02:49:12.103Z,40.93
2022-12-19T02:51:51.628Z,45.93
2022-12-19T02:54:26.547Z,46.77
2022-12-19T02:57:35.170Z,44.07
2022-12-19T03:00:23.250Z,47.00
2022-12-19T03:03:23.692Z,45.10
2022-12-19T03:06:13.056Z,40.87
2022-12-19T03:09:03.328Z,42.07
2022-12-19T03:11:41.493Z,42.57
2022-12-19T03:14:19.864Z,41.80
2022-12-19T03:16:55.193Z,43.57
2022-12-19T03:19:30.404Z,44.03
2022-12-19T03:22:05.381Z,38.53
2022-12-19T03:24:40.519Z,45.80
2022-12-19T03:27:28.024Z,39.63
2022-12-19T03:30:11.571Z,38.23
2022-12-19T03:32:48.033Z,43.87
2022-12-19T03:35:29.393Z,41.93
2022-12-19T03:38:06.049Z,43.80
2022-12-19T03:40:44.283Z,44.30
2022-12-19T03:43:21.607Z,37.80
2022-12-19T03:46:21.762Z,40.87
2022-12-19T03:48:56.824Z,38.40
2022-12-19T03:51:43.570Z,42.40
2022-12-19T03:54:40.499Z,41.67
2022-12-19T03:57:29.756Z,42.10
2022-12-19T04:00:12.933Z,40.07
2022-12-19T04:02:53.260Z,39.57
2022-12-19T04:05:29.316Z,39.47
2022-12-19T04:08:08.131Z,40.30
2022-12-19T04:10:55.718Z,40.97
2022-12-19T04:13:44.559Z,42.10
2022-12-19T04:16:32.680Z,38.20
2022-12-19T04:19:30.900Z,39.43
2022-12-19T04:22:18.162Z,39.50
2022-12-19T04:24:54.657Z,39.73
2022-12-19T04:27:34.552Z,37.60
2022-12-19T04:30:13.603Z,43.50
2022-12-19T04:32:49.931Z,37.03
2022-12-19T04:35:25.137Z,42.53
2022-12-19T04:38:00.204Z,36.60
2022-12-19T04:40:40.897Z,42.50
2022-12-19T04:43:16.518Z,42.37
2022-12-19T04:45:56.970Z,42.20
2022-12-19T04:48:35.623Z,38.17
2022-12-19T04:51:10.701Z,39.20
2022-12-19T04:53:45.584Z,33.83
2022-12-19T04:56:20.572Z,38.40
2022-12-19T04:59:00.005Z,39.40
2022-12-19T05:01:35.016Z,39.60
2022-12-19T05:04:10.376Z,38.53
2022-12-19T05:06:45.413Z,37.07
2022-12-19T05:09:20.399Z,37.20
2022-12-19T05:11:55.377Z,32.83
2022-12-19T05:14:30.263Z,30.10
2022-12-19T05:17:05.842Z,36.53
2022-12-19T05:19:40.749Z,38.57
2022-12-19T05:22:15.716Z,37.83
2022-12-19T05:24:50.607Z,36.20
2022-12-19T05:27:25.752Z,35.13
2022-12-19T05:30:01.385Z,34.37
2022-12-19T05:32:36.359Z,37.37
2022-12-19T05:35:11.266Z,38.77
2022-12-19T05:37:46.287Z,37.60
2022-12-19T05:40:21.322Z,39.10
2022-12-19T05:42:56.345Z,32.93
2022-12-19T05:45:31.333Z,35.73
2022-12-19T05:48:06.606Z,34.77
2022-12-19T05:50:50.075Z,37.60
2022-12-19T05:53:27.465Z,32.93
2022-12-19T05:56:18.591Z,36.20
2022-12-19T05:58:54.591Z,39.20
2022-12-19T06:01:30.304Z,35.23
2022-12-19T06:04:05.595Z,35.93
2022-12-19T06:06:40.665Z,39.30
2022-12-19T06:09:15.594Z,32.40
2022-12-19T06:11:50.514Z,35.20
2022-12-19T06:14:25.409Z,37.47
2022-12-19T06:17:00.302Z,38.83
2022-12-19T06:19:35.154Z,34.43
2022-12-19T06:22:12.791Z,35.03
2022-12-19T06:24:47.657Z,30.10
2022-12-19T06:27:22.524Z,33.40
2022-12-19T06:29:57.402Z,31.63
2022-12-19T06:32:37.728Z,35.97
2022-12-19T06:35:13.136Z,33.23
2022-12-19T06:37:49.342Z,38.00
2022-12-19T06:40:42.617Z,34.27
2022-12-19T06:43:17.532Z,38.10
2022-12-19T06:45:52.481Z,32.60
2022-12-19T06:48:28.057Z,36.63
2022-12-19T06:51:03.058Z,34.50
2022-12-19T06:53:37.951Z,36.43
2022-12-19T06:56:16.048Z,36.57
2022-12-19T06:58:51.471Z,37.73
2022-12-19T07:02:05.511Z,40.77
2022-12-19T07:04:50.660Z,39.90
2022-12-19T07:07:25.529Z,37.97
2022-12-19T07:10:00.498Z,32.43
2022-12-19T07:12:35.561Z,36.37
2022-12-19T07:15:11.012Z,31.10
2022-12-19T07:17:45.948Z,32.23
2022-12-19T07:20:21.695Z,39.47
2022-12-19T07:22:56.634Z,38.70
2022-12-19T07:25:32.368Z,37.47
2022-12-19T07:28:08.931Z,32.03
2022-12-19T07:30:43.842Z,35.77
2022-12-19T07:33:21.604Z,36.70
2022-12-19T07:35:57.081Z,34.23
2022-12-19T07:38:31.983Z,34.97
2022-12-19T07:41:06.877Z,40.77
2022-12-19T07:43:41.760Z,34.63
2022-12-19T07:46:16.670Z,40.10
2022-12-19T07:48:51.590Z,34.97
2022-12-19T07:51:26.631Z,35.53
2022-12-19T07:54:01.540Z,29.07
2022-12-19T07:56:38.218Z,41.00
2022-12-19T07:59:13.325Z,33.13
2022-12-19T08:01:48.408Z,32.27
2022-12-19T08:04:23.697Z,34.77
2022-12-19T08:06:58.664Z,39.53
2022-12-19T08:09:33.606Z,29.10
2022-12-19T08:12:08.554Z,38.00
2022-12-19T08:14:43.448Z,34.53
2022-12-19T08:17:20.902Z,34.13
2022-12-19T08:19:56.304Z,32.03
2022-12-19T08:22:31.394Z,33.00
2022-12-19T08:25:07.571Z,35.60
2022-12-19T08:27:43.019Z,29.53
2022-12-19T08:30:18.844Z,34.93
2022-12-19T08:32:53.781Z,31.93
2022-12-19T08:35:28.938Z,31.90
2022-12-19T08:38:03.854Z,35.23
2022-12-19T08:40:42.840Z,31.27
2022-12-19T08:43:21.474Z,35.90
2022-12-19T08:45:57.382Z,34.47
2022-12-19T08:48:33.544Z,38.27
2022-12-19T08:51:10.012Z,37.50
2022-12-19T08:53:46.458Z,29.60
2022-12-19T08:56:22.745Z,30.63
2022-12-19T08:58:57.619Z,27.63
2022-12-19T09:01:32.679Z,31.87
2022-12-19T09:05:57.327Z,30.60
2022-12-19T09:07:02.486Z,39.37
2022-12-19T09:09:37.425Z,31.20
2022-12-19T09:12:16.687Z,33.63
2022-12-19T09:14:51.623Z,33.60
2022-12-19T09:17:26.548Z,27.50
2022-12-19T09:20:01.419Z,31.80
2022-12-19T09:22:36.319Z,31.10
2022-12-19T09:25:11.202Z,28.67
2022-12-19T09:28:25.295Z,30.00
2022-12-19T09:30:41.646Z,30.30
2022-12-19T09:33:16.558Z,29.87
2022-12-19T09:35:54.466Z,36.43
2022-12-19T09:38:33.416Z,30.10
2022-12-19T09:41:34.185Z,32.40
2022-12-19T09:44:52.185Z,28.83
2022-12-19T09:47:31.202Z,33.43
2022-12-19T09:50:26.015Z,34.80
2022-12-19T09:53:08.068Z,31.40
2022-12-19T09:55:43.751Z,34.03
2022-12-19T09:58:32.670Z,34.53
2022-12-19T10:01:21.419Z,29.67
2022-12-19T10:04:13.108Z,33.40
2022-12-19T10:07:18.499Z,27.37
2022-12-19T10:12:24.499Z,29.03
2022-12-19T10:12:55.791Z,27.60
2022-12-19T10:15:59.025Z,29.17
2022-12-19T10:18:48.405Z,29.77
2022-12-19T10:22:07.717Z,32.07
2022-12-19T10:24:42.580Z,26.57
2022-12-19T10:27:26.426Z,26.27
2022-12-19T10:30:16.686Z,30.33
2022-12-19T10:33:30.845Z,26.30
2022-12-19T10:36:11.370Z,25.63
2022-12-19T10:39:01.380Z,26.93
2022-12-19T10:41:44.291Z,27.90
2022-12-19T10:44:20.026Z,26.20
2022-12-19T10:46:55.017Z,33.00
2022-12-19T10:49:30.825Z,29.43
2022-12-19T10:52:09.277Z,27.70
2022-12-19T10:54:44.250Z,24.70
2022-12-19T10:57:22.167Z,25.97
2022-12-19T11:00:20.396Z,28.60
2022-12-19T11:03:19.122Z,28.17
2022-12-19T11:05:57.077Z,26.17
2022-12-19T11:08:37.727Z,24.87
2022-12-19T11:14:30.819Z,26.77
2022-12-19T11:17:28.091Z,25.60
2022-12-19T11:23:06.092Z,21.77
2022-12-19T11:29:33.344Z,29.23
2022-12-19T11:29:44.436Z,26.97
2022-12-19T11:30:37.608Z,24.30
2022-12-19T11:32:48.428Z,26.43
2022-12-19T11:35:37.073Z,24.70
2022-12-19T11:38:17.704Z,21.70
2022-12-19T11:40:57.840Z,25.97
2022-12-19T11:43:46.234Z,29.03
2022-12-19T11:47:10.896Z,27.40
2022-12-19T11:49:55.387Z,22.77
2022-12-19T11:53:18.553Z,27.47
2022-12-19T11:56:16.497Z,27.13
2022-12-19T11:59:20.108Z,29.70
2022-12-19T12:02:03.676Z,25.40
2022-12-19T12:04:53.534Z,27.57
2022-12-19T12:09:31.156Z,24.00
2022-12-19T12:13:29.314Z,24.57
2022-12-19T12:23:38.640Z,28.50
2022-12-19T12:31:00.548Z,26.93
2022-12-19T12:31:28.409Z,23.53
2022-12-19T12:31:47.566Z,25.00
2022-12-19T12:31:52.577Z,30.93
2022-12-19T12:32:03.367Z,24.83
2022-12-19T12:35:51.085Z,26.30
2022-12-19T12:40:55.289Z,22.00
2022-12-19T12:44:07.851Z,26.20
2022-12-19T12:47:01.167Z,27.60
2022-12-19T12:49:57.871Z,24.00
2022-12-19T12:52:57.357Z,26.83
2022-12-19T12:55:42.528Z,25.33
2022-12-19T12:58:44.313Z,22.30
2022-12-19T13:01:28.484Z,24.53
2022-12-19T13:04:12.425Z,27.13
2022-12-19T13:06:50.234Z,25.13
2022-12-19T13:09:29.482Z,29.07
2022-12-19T13:13:02.465Z,25.63
2022-12-19T13:15:41.106Z,28.40
2022-12-19T13:18:37.586Z,29.03
2022-12-19T13:21:17.795Z,23.53
2022-12-19T13:24:15.969Z,29.57
2022-12-19T13:26:52.393Z,27.13
2022-12-19T13:29:55.230Z,25.93
2022-12-19T13:32:40.411Z,29.27
2022-12-19T13:37:55.679Z,29.23
2022-12-19T13:39:51.157Z,26.93
2022-12-19T13:41:58.867Z,26.07
2022-12-19T13:44:39.925Z,28.53
2022-12-19T13:47:20.296Z,28.80
2022-12-19T13:49:58.924Z,27.63
2022-12-19T13:52:36.602Z,36.37
2022-12-19T13:55:14.552Z,29.53
2022-12-19T13:57:53.635Z,31.40
2022-12-19T14:00:41.664Z,30.60
2022-12-19T14:03:22.335Z,32.37
2022-12-19T14:06:16.664Z,30.27
2022-12-19T14:11:24.311Z,29.80
2022-12-19T14:13:37.040Z,34.53
2022-12-19T14:15:26.405Z,29.57
2022-12-19T14:18:42.448Z,35.13
2022-12-19T14:22:04.242Z,28.50
2022-12-19T14:24:23.697Z,32.27
2022-12-19T14:28:24.279Z,30.03
2022-12-19T14:30:32.197Z,27.70
2022-12-19T14:33:40.835Z,29.97
2022-12-19T14:36:11.378Z,25.30
2022-12-19T14:39:26.346Z,30.77
2022-12-19T14:42:07.936Z,25.93
2022-12-19T14:52:50.774Z,30.20
2022-12-19T14:53:51.549Z,28.60
2022-12-19T14:54:24.477Z,27.70
2022-12-19T14:54:45.180Z,29.67
2022-12-19T14:57:00.685Z,27.73
2022-12-19T14:59:48.580Z,23.17
2022-12-19T15:02:33.981Z,24.43
2022-12-19T15:05:14.802Z,29.27
2022-12-19T15:07:56.782Z,25.93
2022-12-19T15:11:09.294Z,27.80
2022-12-19T15:14:51.989Z,22.70
2022-12-19T15:16:34.644Z,24.60
2022-12-19T15:19:13.348Z,26.90
2022-12-19T15:21:48.226Z,26.30
2022-12-19T15:24:23.109Z,28.50
2022-12-19T15:26:58.341Z,25.07
2022-12-19T15:29:34.305Z,24.57
2022-12-19T15:32:16.632Z,29.23
2022-12-19T15:34:51.959Z,25.30
2022-12-19T15:37:26.941Z,32.20
2022-12-19T15:40:01.855Z,31.37
2022-12-19T15:42:36.779Z,26.63
2022-12-19T15:45:19.128Z,28.57
2022-12-19T15:47:54.531Z,31.67
2022-12-19T15:50:32.059Z,28.17
2022-12-19T15:53:39.920Z,32.80
2022-12-19T15:56:23.819Z,24.07
2022-12-19T15:59:00.849Z,25.23
2022-12-19T16:01:35.876Z,26.63
2022-12-19T16:04:13.635Z,25.17
2022-12-19T16:06:48.766Z,26.77
2022-12-19T16:09:27.630Z,25.80
2022-12-19T16:12:02.690Z,24.93
2022-12-19T16:14:37.985Z,23.23
2022-12-19T16:17:21.143Z,26.17
2022-12-19T16:19:56.091Z,27.67
2022-12-19T16:22:31.003Z,23.47
2022-12-19T16:25:06.266Z,28.93
2022-12-19T16:27:42.295Z,30.10
2022-12-19T16:30:24.405Z,30.93
2022-12-19T16:32:59.759Z,33.00
2022-12-19T16:36:02.961Z,29.13
2022-12-19T16:38:30.247Z,30.80
2022-12-19T16:41:05.201Z,29.10
2022-12-19T16:43:44.200Z,25.70
2022-12-19T16:46:23.524Z,25.63
2022-12-19T16:48:58.602Z,28.37
2022-12-19T16:51:33.510Z,31.27
2022-12-19T16:54:12.715Z,26.33
2022-12-19T16:56:53.843Z,26.80
2022-12-19T16:59:36.379Z,26.40
2022-12-19T17:02:38.057Z,27.07
2022-12-19T17:05:24.499Z,29.63
2022-12-19T17:07:59.937Z,36.67
2022-12-19T17:10:34.833Z,25.33
2022-12-19T17:13:11.191Z,24.40
2022-12-19T17:15:51.049Z,27.87
2022-12-19T17:18:34.944Z,42.77
2022-12-19T17:21:20.714Z,35.10
2022-12-19T17:23:55.702Z,29.77
2022-12-19T17:26:30.743Z,33.47
2022-12-19T17:29:05.928Z,30.43
2022-12-19T17:31:41.619Z,25.97
2022-12-19T17:34:23.930Z,25.30
2022-12-19T17:37:00.483Z,24.93
2022-12-19T17:39:36.154Z,23.90
2022-12-19T17:42:23.160Z,26.80
2022-12-19T17:44:58.073Z,26.60
2022-12-19T17:47:32.979Z,27.07
2022-12-19T17:50:22.424Z,25.90
2022-12-19T17:52:57.676Z,28.33
2022-12-19T17:55:33.449Z,30.70
2022-12-19T17:58:10.759Z,27.67
2022-12-19T18:00:47.328Z,28.03
2022-12-19T18:03:25.759Z,26.50
2022-12-19T18:06:00.791Z,31.30
2022-12-19T18:08:35.839Z,28.53
2022-12-19T18:11:27.203Z,26.97
2022-12-19T18:14:02.172Z,29.20
2022-12-19T18:16:37.626Z,24.77
2022-12-19T18:19:23.504Z,26.77
2022-12-19T18:21:58.689Z,25.50
2022-12-19T18:24:33.584Z,27.83
2022-12-19T18:27:08.553Z,27.87
2022-12-19T18:29:43.509Z,26.27
2022-12-19T18:32:20.232Z,21.63
2022-12-19T18:34:55.177Z,26.50
2022-12-19T18:37:30.083Z,26.03
2022-12-19T18:40:20.231Z,27.33
2022-12-19T18:42:58.835Z,23.63
2022-12-19T18:45:40.117Z,28.90
2022-12-19T18:48:36.949Z,25.20
2022-12-19T18:51:20.708Z,26.97
2022-12-19T18:53:56.300Z,27.43
2022-12-19T18:56:31.189Z,26.70
2022-12-19T18:59:07.109Z,25.73
2022-12-19T19:01:46.269Z,25.43
2022-12-19T19:04:22.180Z,28.20
2022-12-19T19:06:57.212Z,26.27
2022-12-19T19:09:32.166Z,23.90
2022-12-19T19:12:26.503Z,23.27
2022-12-19T19:15:01.645Z,30.43
2022-12-19T19:17:36.863Z,29.17
2022-12-19T19:20:11.935Z,26.27
2022-12-19T19:22:47.542Z,24.90
2022-12-19T19:25:22.759Z,25.67
2022-12-19T19:27:58.248Z,24.40
2022-12-19T19:30:37.306Z,23.73
2022-12-19T19:33:21.659Z,29.03
2022-12-19T19:36:06.048Z,24.57
2022-12-19T19:38:48.182Z,26.60
2022-12-19T19:41:29.796Z,31.53
2022-12-19T19:44:05.048Z,29.27
2022-12-19T19:46:40.419Z,28.40
2022-12-19T19:49:15.713Z,22.60
2022-12-19T19:51:55.568Z,21.10
2022-12-19T19:54:34.934Z,26.50
2022-12-19T19:57:09.833Z,21.97
2022-12-19T19:59:45.266Z,21.87
2022-12-19T20:02:20.384Z,23.83
2022-12-19T20:04:55.477Z,23.37
2022-12-19T20:07:30.772Z,25.83
2022-12-19T20:10:07.643Z,26.47
2022-12-19T20:12:42.539Z,22.97
2022-12-19T20:15:17.566Z,23.03
2022-12-19T20:17:53.536Z,24.60
2022-12-19T20:20:28.482Z,22.40
2022-12-19T20:23:05.849Z,25.33
2022-12-19T20:25:42.191Z,21.40
2022-12-19T20:28:17.958Z,24.30
2022-12-19T20:30:52.882Z,22.43
2022-12-19T20:33:28.144Z,19.53
2022-12-19T20:36:12.270Z,23.90
2022-12-19T20:38:47.715Z,22.53
2022-12-19T20:41:22.839Z,21.57
2022-12-19T20:43:58.060Z,19.77
2022-12-19T20:46:33.068Z,20.73
2022-12-19T20:49:08.020Z,24.87
2022-12-19T20:51:44.351Z,18.60
2022-12-19T20:54:19.875Z,18.53
2022-12-19T20:56:54.917Z,21.10
2022-12-19T20:59:29.824Z,18.37
2022-12-19T21:02:04.946Z,36.13
2022-12-19T21:04:40.129Z,21.87
2022-12-19T21:07:15.198Z,21.50
2022-12-19T21:09:54.016Z,19.70
2022-12-19T21:12:28.931Z,19.47
2022-12-19T21:15:04.444Z,20.47
2022-12-19T21:17:39.335Z,18.60
2022-12-19T21:20:15.253Z,20.70
2022-12-19T21:22:50.272Z,21.13
2022-12-19T21:25:25.314Z,21.57
2022-12-19T21:28:00.211Z,22.40
2022-12-19T21:30:35.399Z,16.23
2022-12-19T21:33:10.440Z,19.13
2022-12-19T21:35:45.344Z,19.67
2022-12-19T21:38:21.078Z,21.00
2022-12-19T21:40:56.038Z,21.30
2022-12-19T21:43:33.227Z,20.53
2022-12-19T21:46:10.992Z,22.23
2022-12-19T21:48:48.943Z,20.07
2022-12-19T21:51:27.387Z,21.73
2022-12-19T21:54:04.516Z,20.97
2022-12-19T21:56:40.847Z,18.67
2022-12-19T21:59:17.377Z,21.00
2022-12-19T22:01:52.504Z,21.90
2022-12-19T22:04:27.853Z,20.23
2022-12-19T22:07:05.367Z,18.17
2022-12-19T22:09:40.263Z,18.70
2022-12-19T22:12:15.360Z,19.70
2022-12-19T22:14:50.467Z,19.10
2022-12-19T22:17:25.410Z,17.40
2022-12-19T22:20:00.288Z,23.60
2022-12-19T22:22:35.200Z,19.10
2022-12-19T22:25:10.213Z,20.20
2022-12-19T22:27:45.152Z,22.43
2022-12-19T22:30:20.101Z,24.60
2022-12-19T22:32:55.058Z,20.50
2022-12-19T22:35:30.330Z,20.63
2022-12-19T22:38:05.226Z,23.00
2022-12-19T22:40:40.121Z,23.10
2022-12-19T22:43:15.114Z,22.27
2022-12-19T22:45:49.995Z,23.33
2022-12-19T22:48:24.996Z,22.93
2022-12-19T22:50:59.910Z,25.63
2022-12-19T22:53:36.931Z,24.77
2022-12-19T22:56:18.635Z,22.90
2022-12-19T22:58:56.239Z,24.70
2022-12-19T23:01:36.804Z,22.47
2022-12-19T23:04:15.355Z,22.53
2022-12-19T23:06:50.491Z,20.40
2022-12-19T23:09:25.393Z,25.07
2022-12-19T23:12:00.363Z,18.47
2022-12-19T23:14:35.279Z,24.27
2022-12-19T23:17:10.314Z,21.77
2022-12-19T23:19:45.269Z,23.23
2022-12-19T23:22:20.319Z,21.17
2022-12-19T23:24:55.471Z,21.63
2022-12-19T23:27:30.386Z,22.13
2022-12-19T23:30:05.886Z,27.10
2022-12-19T23:32:44.232Z,19.97
2022-12-19T23:35:23.835Z,19.83
2022-12-19T23:37:58.740Z,17.40
2022-12-19T23:40:34.177Z,17.90
2022-12-19T23:43:09.131Z,23.40
2022-12-19T23:45:44.036Z,19.30
2022-12-19T23:48:19.860Z,21.33
2022-12-19T23:51:04.598Z,21.43
2022-12-19T23:53:39.620Z,18.33
2022-12-19T23:56:19.596Z,21.40
2022-12-19T23:58:55.345Z,21.23
